sensor_id;sensor_type;location;lat;lon;timestamp;temperature;humidity
68251;DHT22;55066;51.560;4.642;2022-09-01T00:01:51;16.83;68.52
68251;DHT22;55066;51.560;4.642;2022-09-01T00:04:19;16.63;71.70
68251;DHT22;55066;51.560;4.642;2022-09-01T00:06:45;16.59;71.50
68251;DHT22;55066;51.560;4.642;2022-09-01T00:09:14;16.39;71.81
68251;DHT22;55066;51.560;4.642;2022-09-01T00:11:42;16.43;73.15
68251;DHT22;55066;51.560;4.642;2022-09-01T00:14:08;16.41;72.74
68251;DHT22;55066;51.560;4.642;2022-09-01T00:16:34;16.35;71.34
68251;DHT22;55066;51.560;4.642;2022-09-01T00:19:00;16.52;69.40
68251;DHT22;55066;51.560;4.642;2022-09-01T00:21:36;16.67;70.67
68251;DHT22;55066;51.560;4.642;2022-09-01T00:24:02;16.69;71.94
68251;DHT22;55066;51.560;4.642;2022-09-01T00:26:28;16.39;73.51
68251;DHT22;55066;51.560;4.642;2022-09-01T00:28:53;16.21;71.96
68251;DHT22;55066;51.560;4.642;2022-09-01T00:31:19;16.39;73.74
68251;DHT22;55066;51.560;4.642;2022-09-01T00:33:46;16.14;73.80
68251;DHT22;55066;51.560;4.642;2022-09-01T00:36:13;16.05;74.22
68251;DHT22;55066;51.560;4.642;2022-09-01T00:38:38;16.18;72.21
68251;DHT22;55066;51.560;4.642;2022-09-01T00:41:05;16.14;74.19
68251;DHT22;55066;51.560;4.642;2022-09-01T00:46:04;16.22;74.66
68251;DHT22;55066;51.560;4.642;2022-09-01T00:48:30;16.15;73.59
68251;DHT22;55066;51.560;4.642;2022-09-01T00:50:56;16.18;74.38
68251;DHT22;55066;51.560;4.642;2022-09-01T00:53:21;16.19;72.98
68251;DHT22;55066;51.560;4.642;2022-09-01T00:55:47;16.15;74.57
68251;DHT22;55066;51.560;4.642;2022-09-01T00:58:12;16.14;75.54
68251;DHT22;55066;51.560;4.642;2022-09-01T01:00:38;15.97;76.03
68251;DHT22;55066;51.560;4.642;2022-09-01T01:03:10;15.91;76.24
68251;DHT22;55066;51.560;4.642;2022-09-01T01:05:39;16.00;71.22
68251;DHT22;55066;51.560;4.642;2022-09-01T01:08:08;16.02;75.55
68251;DHT22;55066;51.560;4.642;2022-09-01T01:10:38;16.04;73.98
68251;DHT22;55066;51.560;4.642;2022-09-01T01:13:15;16.01;75.93
68251;DHT22;55066;51.560;4.642;2022-09-01T01:15:41;16.18;71.08
68251;DHT22;55066;51.560;4.642;2022-09-01T01:18:12;16.26;71.20
68251;DHT22;55066;51.560;4.642;2022-09-01T01:20:38;16.38;72.29
68251;DHT22;55066;51.560;4.642;2022-09-01T01:23:44;16.05;75.98
68251;DHT22;55066;51.560;4.642;2022-09-01T01:26:13;15.96;76.94
68251;DHT22;55066;51.560;4.642;2022-09-01T01:28:41;15.97;75.08
68251;DHT22;55066;51.560;4.642;2022-09-01T01:31:12;15.91;76.79
68251;DHT22;55066;51.560;4.642;2022-09-01T01:33:57;16.01;73.69
68251;DHT22;55066;51.560;4.642;2022-09-01T01:36:26;15.97;74.75
68251;DHT22;55066;51.560;4.642;2022-09-01T01:39:13;16.02;76.36
68251;DHT22;55066;51.560;4.642;2022-09-01T01:41:41;15.93;76.96
68251;DHT22;55066;51.560;4.642;2022-09-01T01:44:12;15.87;77.42
68251;DHT22;55066;51.560;4.642;2022-09-01T01:46:43;15.90;74.71
68251;DHT22;55066;51.560;4.642;2022-09-01T01:49:10;15.78;77.65
68251;DHT22;55066;51.560;4.642;2022-09-01T01:51:39;15.66;77.89
68251;DHT22;55066;51.560;4.642;2022-09-01T01:54:05;15.52;73.56
68251;DHT22;55066;51.560;4.642;2022-09-01T01:56:32;15.53;75.81
68251;DHT22;55066;51.560;4.642;2022-09-01T01:59:00;15.63;72.39
68251;DHT22;55066;51.560;4.642;2022-09-01T02:01:27;15.70;73.58
68251;DHT22;55066;51.560;4.642;2022-09-01T02:03:55;15.67;73.27
68251;DHT22;55066;51.560;4.642;2022-09-01T02:06:23;15.73;76.35
68251;DHT22;55066;51.560;4.642;2022-09-01T02:08:54;15.50;78.56
68251;DHT22;55066;51.560;4.642;2022-09-01T02:11:24;15.42;74.36
68251;DHT22;55066;51.560;4.642;2022-09-01T02:13:52;15.42;73.01
68251;DHT22;55066;51.560;4.642;2022-09-01T02:16:23;15.52;78.88
68251;DHT22;55066;51.560;4.642;2022-09-01T02:18:49;15.29;78.55
68251;DHT22;55066;51.560;4.642;2022-09-01T02:21:18;15.38;74.80
68251;DHT22;55066;51.560;4.642;2022-09-01T02:23:51;15.28;73.34
68251;DHT22;55066;51.560;4.642;2022-09-01T02:26:24;15.38;73.28
68251;DHT22;55066;51.560;4.642;2022-09-01T02:28:52;15.39;78.74
68251;DHT22;55066;51.560;4.642;2022-09-01T02:31:18;15.26;76.30
68251;DHT22;55066;51.560;4.642;2022-09-01T02:33:44;15.21;80.32
68251;DHT22;55066;51.560;4.642;2022-09-01T02:36:13;15.25;73.62
68251;DHT22;55066;51.560;4.642;2022-09-01T02:38:41;15.33;74.52
68251;DHT22;55066;51.560;4.642;2022-09-01T02:41:10;15.46;71.19
68251;DHT22;55066;51.560;4.642;2022-09-01T02:43:37;15.47;75.92
68251;DHT22;55066;51.560;4.642;2022-09-01T02:46:04;15.32;77.59
68251;DHT22;55066;51.560;4.642;2022-09-01T02:48:33;15.19;77.05
68251;DHT22;55066;51.560;4.642;2022-09-01T02:51:07;15.44;71.02
68251;DHT22;55066;51.560;4.642;2022-09-01T02:53:34;15.31;77.31
68251;DHT22;55066;51.560;4.642;2022-09-01T02:56:04;14.98;79.29
68251;DHT22;55066;51.560;4.642;2022-09-01T02:58:34;14.74;75.67
68251;DHT22;55066;51.560;4.642;2022-09-01T03:01:26;14.95;73.66
68251;DHT22;55066;51.560;4.642;2022-09-01T03:03:57;15.04;76.72
68251;DHT22;55066;51.560;4.642;2022-09-01T03:06:23;15.11;75.46
68251;DHT22;55066;51.560;4.642;2022-09-01T03:08:54;15.08;72.08
68251;DHT22;55066;51.560;4.642;2022-09-01T03:11:21;15.16;77.24
68251;DHT22;55066;51.560;4.642;2022-09-01T03:13:49;15.32;73.28
68251;DHT22;55066;51.560;4.642;2022-09-01T03:16:15;15.08;79.73
68251;DHT22;55066;51.560;4.642;2022-09-01T03:18:40;14.78;77.52
68251;DHT22;55066;51.560;4.642;2022-09-01T03:21:08;14.80;74.28
68251;DHT22;55066;51.560;4.642;2022-09-01T03:23:34;14.73;79.48
68251;DHT22;55066;51.560;4.642;2022-09-01T03:26:00;14.83;74.77
68251;DHT22;55066;51.560;4.642;2022-09-01T03:28:27;15.18;76.46
68251;DHT22;55066;51.560;4.642;2022-09-01T03:30:54;15.02;75.81
68251;DHT22;55066;51.560;4.642;2022-09-01T03:33:21;14.95;72.80
68251;DHT22;55066;51.560;4.642;2022-09-01T03:35:48;14.99;75.64
68251;DHT22;55066;51.560;4.642;2022-09-01T03:38:14;14.81;78.87
68251;DHT22;55066;51.560;4.642;2022-09-01T03:40:49;14.91;80.35
68251;DHT22;55066;51.560;4.642;2022-09-01T03:43:15;14.73;75.27
68251;DHT22;55066;51.560;4.642;2022-09-01T03:45:42;14.39;78.03
68251;DHT22;55066;51.560;4.642;2022-09-01T03:48:09;14.30;80.75
68251;DHT22;55066;51.560;4.642;2022-09-01T03:50:37;14.55;75.97
68251;DHT22;55066;51.560;4.642;2022-09-01T03:53:15;14.73;74.74
68251;DHT22;55066;51.560;4.642;2022-09-01T03:55:43;14.60;79.69
68251;DHT22;55066;51.560;4.642;2022-09-01T03:58:10;14.66;77.25
68251;DHT22;55066;51.560;4.642;2022-09-01T04:00:42;14.88;73.39
68251;DHT22;55066;51.560;4.642;2022-09-01T04:03:10;14.66;76.44
68251;DHT22;55066;51.560;4.642;2022-09-01T04:05:37;14.71;78.80
68251;DHT22;55066;51.560;4.642;2022-09-01T04:08:07;14.43;81.86
68251;DHT22;55066;51.560;4.642;2022-09-01T04:10:42;14.33;77.74
68251;DHT22;55066;51.560;4.642;2022-09-01T04:13:18;14.81;75.43
68251;DHT22;55066;51.560;4.642;2022-09-01T04:15:45;14.57;76.13
68251;DHT22;55066;51.560;4.642;2022-09-01T04:18:11;14.55;75.66
68251;DHT22;55066;51.560;4.642;2022-09-01T04:20:47;14.73;70.89
68251;DHT22;55066;51.560;4.642;2022-09-01T04:23:28;14.49;80.61
68251;DHT22;55066;51.560;4.642;2022-09-01T04:26:08;14.32;73.38
68251;DHT22;55066;51.560;4.642;2022-09-01T04:28:38;14.34;82.00
68251;DHT22;55066;51.560;4.642;2022-09-01T04:31:08;14.40;71.86
68251;DHT22;55066;51.560;4.642;2022-09-01T04:33:37;14.49;74.73
68251;DHT22;55066;51.560;4.642;2022-09-01T04:36:13;14.23;75.43
68251;DHT22;55066;51.560;4.642;2022-09-01T04:38:45;14.30;74.10
68251;DHT22;55066;51.560;4.642;2022-09-01T04:41:11;14.16;79.22
68251;DHT22;55066;51.560;4.642;2022-09-01T04:43:42;14.22;73.92
68251;DHT22;55066;51.560;4.642;2022-09-01T04:46:10;14.15;80.03
68251;DHT22;55066;51.560;4.642;2022-09-01T04:48:39;14.20;77.36
68251;DHT22;55066;51.560;4.642;2022-09-01T04:51:08;14.43;72.81
68251;DHT22;55066;51.560;4.642;2022-09-01T04:53:49;14.22;75.69
68251;DHT22;55066;51.560;4.642;2022-09-01T04:56:18;14.39;71.64
68251;DHT22;55066;51.560;4.642;2022-09-01T04:58:50;14.55;77.41
68251;DHT22;55066;51.560;4.642;2022-09-01T05:01:24;14.66;73.18
68251;DHT22;55066;51.560;4.642;2022-09-01T05:03:50;14.23;82.62
68251;DHT22;55066;51.560;4.642;2022-09-01T05:06:35;14.05;78.28
68251;DHT22;55066;51.560;4.642;2022-09-01T05:09:03;13.88;78.11
68251;DHT22;55066;51.560;4.642;2022-09-01T05:11:48;14.30;71.73
68251;DHT22;55066;51.560;4.642;2022-09-01T05:14:28;14.30;79.96
68251;DHT22;55066;51.560;4.642;2022-09-01T05:16:58;14.30;80.10
68251;DHT22;55066;51.560;4.642;2022-09-01T05:19:25;14.20;80.09
68251;DHT22;55066;51.560;4.642;2022-09-01T05:21:54;14.49;74.25
68251;DHT22;55066;51.560;4.642;2022-09-01T05:24:23;14.34;76.00
68251;DHT22;55066;51.560;4.642;2022-09-01T05:26:53;14.23;72.83
68251;DHT22;55066;51.560;4.642;2022-09-01T05:29:18;14.18;73.57
68251;DHT22;55066;51.560;4.642;2022-09-01T05:31:47;14.23;72.74
68251;DHT22;55066;51.560;4.642;2022-09-01T05:34:14;14.30;80.82
68251;DHT22;55066;51.560;4.642;2022-09-01T05:36:45;14.20;75.23
68251;DHT22;55066;51.560;4.642;2022-09-01T05:39:11;14.19;79.66
68251;DHT22;55066;51.560;4.642;2022-09-01T05:41:38;14.29;73.42
68251;DHT22;55066;51.560;4.642;2022-09-01T05:44:06;14.32;75.53
68251;DHT22;55066;51.560;4.642;2022-09-01T05:46:34;14.43;75.43
68251;DHT22;55066;51.560;4.642;2022-09-01T05:49:01;14.49;76.92
68251;DHT22;55066;51.560;4.642;2022-09-01T05:51:28;14.53;80.29
68251;DHT22;55066;51.560;4.642;2022-09-01T05:53:56;14.51;78.35
68251;DHT22;55066;51.560;4.642;2022-09-01T05:56:25;14.61;77.81
68251;DHT22;55066;51.560;4.642;2022-09-01T05:58:52;14.70;79.96
68251;DHT22;55066;51.560;4.642;2022-09-01T06:01:20;14.76;76.80
68251;DHT22;55066;51.560;4.642;2022-09-01T06:03:49;14.80;79.34
68251;DHT22;55066;51.560;4.642;2022-09-01T06:06:20;14.81;78.33
68251;DHT22;55066;51.560;4.642;2022-09-01T06:08:48;14.83;78.02
68251;DHT22;55066;51.560;4.642;2022-09-01T06:11:15;14.94;78.36
68251;DHT22;55066;51.560;4.642;2022-09-01T06:13:43;15.01;77.13
68251;DHT22;55066;51.560;4.642;2022-09-01T06:16:09;15.15;74.91
68251;DHT22;55066;51.560;4.642;2022-09-01T06:18:37;15.25;78.03
68251;DHT22;55066;51.560;4.642;2022-09-01T06:21:04;15.18;78.08
68251;DHT22;55066;51.560;4.642;2022-09-01T06:23:29;15.23;77.84
68251;DHT22;55066;51.560;4.642;2022-09-01T06:25:56;15.31;77.95
68251;DHT22;55066;51.560;4.642;2022-09-01T06:28:24;15.43;77.22
68251;DHT22;55066;51.560;4.642;2022-09-01T06:30:49;15.49;75.06
68251;DHT22;55066;51.560;4.642;2022-09-01T06:33:16;15.64;75.87
68251;DHT22;55066;51.560;4.642;2022-09-01T06:35:46;15.71;76.43
68251;DHT22;55066;51.560;4.642;2022-09-01T06:38:12;15.78;69.65
68251;DHT22;55066;51.560;4.642;2022-09-01T06:40:45;15.93;74.27
68251;DHT22;55066;51.560;4.642;2022-09-01T06:43:13;16.04;75.21
68251;DHT22;55066;51.560;4.642;2022-09-01T06:45:45;16.09;75.37
68251;DHT22;55066;51.560;4.642;2022-09-01T06:48:20;16.19;74.29
68251;DHT22;55066;51.560;4.642;2022-09-01T06:50:46;16.26;72.93
68251;DHT22;55066;51.560;4.642;2022-09-01T06:53:12;16.35;74.31
68251;DHT22;55066;51.560;4.642;2022-09-01T06:55:47;16.49;74.69
68251;DHT22;55066;51.560;4.642;2022-09-01T06:58:14;16.45;73.68
68251;DHT22;55066;51.560;4.642;2022-09-01T07:00:47;16.53;74.31
68251;DHT22;55066;51.560;4.642;2022-09-01T07:03:14;16.70;72.78
68251;DHT22;55066;51.560;4.642;2022-09-01T07:05:47;16.83;69.69
68251;DHT22;55066;51.560;4.642;2022-09-01T07:08:16;16.97;73.38
68251;DHT22;55066;51.560;4.642;2022-09-01T07:10:57;17.17;68.18
68251;DHT22;55066;51.560;4.642;2022-09-01T07:13:23;17.19;69.64
68251;DHT22;55066;51.560;4.642;2022-09-01T07:15:52;17.35;72.37
68251;DHT22;55066;51.560;4.642;2022-09-01T07:18:20;17.39;70.71
68251;DHT22;55066;51.560;4.642;2022-09-01T07:20:47;17.53;71.62
68251;DHT22;55066;51.560;4.642;2022-09-01T07:23:14;17.72;69.36
68251;DHT22;55066;51.560;4.642;2022-09-01T07:25:43;17.83;71.24
68251;DHT22;55066;51.560;4.642;2022-09-01T07:28:21;17.93;69.43
68251;DHT22;55066;51.560;4.642;2022-09-01T07:30:54;17.98;70.58
68251;DHT22;55066;51.560;4.642;2022-09-01T07:33:21;18.03;70.20
68251;DHT22;55066;51.560;4.642;2022-09-01T07:35:53;18.11;69.99
68251;DHT22;55066;51.560;4.642;2022-09-01T07:38:21;18.11;70.05
68251;DHT22;55066;51.560;4.642;2022-09-01T07:40:47;18.34;70.39
68251;DHT22;55066;51.560;4.642;2022-09-01T07:43:45;18.56;69.62
68251;DHT22;55066;51.560;4.642;2022-09-01T07:46:31;18.52;69.15
68251;DHT22;55066;51.560;4.642;2022-09-01T07:48:59;18.68;68.38
68251;DHT22;55066;51.560;4.642;2022-09-01T07:51:27;19.00;68.42
68251;DHT22;55066;51.560;4.642;2022-09-01T07:53:52;18.93;68.57
68251;DHT22;55066;51.560;4.642;2022-09-01T07:56:20;19.04;68.18
68251;DHT22;55066;51.560;4.642;2022-09-01T07:58:49;19.02;67.66
68251;DHT22;55066;51.560;4.642;2022-09-01T08:01:19;19.13;67.78
68251;DHT22;55066;51.560;4.642;2022-09-01T08:03:48;19.03;67.37
68251;DHT22;55066;51.560;4.642;2022-09-01T08:06:17;19.17;67.50
68251;DHT22;55066;51.560;4.642;2022-09-01T08:08:45;19.38;67.30
68251;DHT22;55066;51.560;4.642;2022-09-01T08:11:15;19.51;67.04
68251;DHT22;55066;51.560;4.642;2022-09-01T08:13:42;19.59;66.14
68251;DHT22;55066;51.560;4.642;2022-09-01T08:16:09;19.61;66.73
68251;DHT22;55066;51.560;4.642;2022-09-01T08:18:35;19.86;66.07
68251;DHT22;55066;51.560;4.642;2022-09-01T08:21:05;20.05;66.52
68251;DHT22;55066;51.560;4.642;2022-09-01T08:23:31;20.01;65.39
68251;DHT22;55066;51.560;4.642;2022-09-01T08:25:57;19.99;65.42
68251;DHT22;55066;51.560;4.642;2022-09-01T08:28:22;19.93;64.67
68251;DHT22;55066;51.560;4.642;2022-09-01T08:30:51;20.03;65.23
68251;DHT22;55066;51.560;4.642;2022-09-01T08:33:17;20.33;65.02
68251;DHT22;55066;51.560;4.642;2022-09-01T08:35:47;20.47;65.03
68251;DHT22;55066;51.560;4.642;2022-09-01T08:38:14;20.69;64.03
68251;DHT22;55066;51.560;4.642;2022-09-01T08:40:42;20.68;64.01
68251;DHT22;55066;51.560;4.642;2022-09-01T08:45:52;21.17;63.74
68251;DHT22;55066;51.560;4.642;2022-09-01T08:51:06;21.41;62.95
68251;DHT22;55066;51.560;4.642;2022-09-01T08:56:52;21.69;62.82
68251;DHT22;55066;51.560;4.642;2022-09-01T08:59:24;21.71;62.07
68251;DHT22;55066;51.560;4.642;2022-09-01T09:02:40;22.01;61.63
68251;DHT22;55066;51.560;4.642;2022-09-01T09:08:38;22.36;61.12
68251;DHT22;55066;51.560;4.642;2022-09-01T09:14:07;22.37;60.81
68251;DHT22;55066;51.560;4.642;2022-09-01T09:16:46;22.44;60.89
68251;DHT22;55066;51.560;4.642;2022-09-01T09:19:22;22.65;60.82
68251;DHT22;55066;51.560;4.642;2022-09-01T09:21:51;22.63;60.15
68251;DHT22;55066;51.560;4.642;2022-09-01T09:27:15;22.88;59.62
68251;DHT22;55066;51.560;4.642;2022-09-01T09:29:42;23.06;60.76
68251;DHT22;55066;51.560;4.642;2022-09-01T09:32:08;23.06;59.66
68251;DHT22;55066;51.560;4.642;2022-09-01T09:34:41;23.08;60.59
68251;DHT22;55066;51.560;4.642;2022-09-01T09:37:19;23.32;58.74
68251;DHT22;55066;51.560;4.642;2022-09-01T09:40:11;23.09;58.39
68251;DHT22;55066;51.560;4.642;2022-09-01T09:42:42;23.29;60.49
68251;DHT22;55066;51.560;4.642;2022-09-01T09:45:25;23.61;58.55
68251;DHT22;55066;51.560;4.642;2022-09-01T09:47:53;23.52;57.83
68251;DHT22;55066;51.560;4.642;2022-09-01T09:52:48;23.87;56.70
68251;DHT22;55066;51.560;4.642;2022-09-01T09:55:26;24.28;57.96
68251;DHT22;55066;51.560;4.642;2022-09-01T09:57:56;24.37;56.47
68251;DHT22;55066;51.560;4.642;2022-09-01T10:00:33;24.39;56.08
68251;DHT22;55066;51.560;4.642;2022-09-01T10:03:01;24.12;55.43
68251;DHT22;55066;51.560;4.642;2022-09-01T10:05:48;24.39;54.51
68251;DHT22;55066;51.560;4.642;2022-09-01T10:11:03;24.15;54.32
68251;DHT22;55066;51.560;4.642;2022-09-01T10:13:30;24.66;60.18
68251;DHT22;55066;51.560;4.642;2022-09-01T10:16:02;24.29;53.96
68251;DHT22;55066;51.560;4.642;2022-09-01T10:18:36;24.63;56.11
68251;DHT22;55066;51.560;4.642;2022-09-01T10:21:16;24.40;53.16
68251;DHT22;55066;51.560;4.642;2022-09-01T10:23:46;24.81;52.90
68251;DHT22;55066;51.560;4.642;2022-09-01T10:26:24;24.81;51.31
68251;DHT22;55066;51.560;4.642;2022-09-01T10:28:56;24.94;53.43
68251;DHT22;55066;51.560;4.642;2022-09-01T10:31:24;24.69;51.33
68251;DHT22;55066;51.560;4.642;2022-09-01T10:33:50;24.98;51.44
68251;DHT22;55066;51.560;4.642;2022-09-01T10:36:16;24.88;51.92
68251;DHT22;55066;51.560;4.642;2022-09-01T10:38:42;25.15;51.56
68251;DHT22;55066;51.560;4.642;2022-09-01T10:41:08;25.36;51.16
68251;DHT22;55066;51.560;4.642;2022-09-01T10:48:43;25.39;53.85
68251;DHT22;55066;51.560;4.642;2022-09-01T10:56:38;25.19;50.68
68251;DHT22;55066;51.560;4.642;2022-09-01T11:04:14;25.96;53.85
68251;DHT22;55066;51.560;4.642;2022-09-01T11:09:34;25.35;48.95
68251;DHT22;55066;51.560;4.642;2022-09-01T11:12:09;25.72;49.28
68251;DHT22;55066;51.560;4.642;2022-09-01T11:22:28;26.00;47.83
68251;DHT22;55066;51.560;4.642;2022-09-01T11:30:33;26.52;49.00
68251;DHT22;55066;51.560;4.642;2022-09-01T11:33:17;26.20;48.30
68251;DHT22;55066;51.560;4.642;2022-09-01T11:35:46;26.01;48.78
68251;DHT22;55066;51.560;4.642;2022-09-01T11:38:21;26.39;57.06
68251;DHT22;55066;51.560;4.642;2022-09-01T11:40:54;26.48;49.18
68251;DHT22;55066;51.560;4.642;2022-09-01T11:43:22;25.73;46.86
68251;DHT22;55066;51.560;4.642;2022-09-01T11:46:10;26.72;50.60
68251;DHT22;55066;51.560;4.642;2022-09-01T11:48:45;26.10;46.64
68251;DHT22;55066;51.560;4.642;2022-09-01T11:51:11;26.52;48.40
68251;DHT22;55066;51.560;4.642;2022-09-01T11:53:36;26.60;47.40
68251;DHT22;55066;51.560;4.642;2022-09-01T11:56:26;26.42;45.82
68251;DHT22;55066;51.560;4.642;2022-09-01T11:58:51;26.35;47.72
68251;DHT22;55066;51.560;4.642;2022-09-01T12:03:54;27.33;45.80
68251;DHT22;55066;51.560;4.642;2022-09-01T12:06:23;27.27;46.61
68251;DHT22;55066;51.560;4.642;2022-09-01T12:08:57;27.41;49.93
68251;DHT22;55066;51.560;4.642;2022-09-01T12:11:26;27.38;45.77
68251;DHT22;55066;51.560;4.642;2022-09-01T12:14:02;27.84;46.58
68251;DHT22;55066;51.560;4.642;2022-09-01T12:16:29;27.90;45.83
68251;DHT22;55066;51.560;4.642;2022-09-01T12:18:57;27.10;45.57
68251;DHT22;55066;51.560;4.642;2022-09-01T12:21:27;27.20;46.43
68251;DHT22;55066;51.560;4.642;2022-09-01T12:23:54;26.79;47.10
68251;DHT22;55066;51.560;4.642;2022-09-01T12:26:33;27.21;49.14
68251;DHT22;55066;51.560;4.642;2022-09-01T12:28:59;26.72;45.53
68251;DHT22;55066;51.560;4.642;2022-09-01T12:31:25;27.08;47.49
68251;DHT22;55066;51.560;4.642;2022-09-01T12:33:52;27.35;45.31
68251;DHT22;55066;51.560;4.642;2022-09-01T12:36:27;28.61;56.41
68251;DHT22;55066;51.560;4.642;2022-09-01T12:41:43;28.18;45.33
68251;DHT22;55066;51.560;4.642;2022-09-01T12:46:54;27.95;48.91
68251;DHT22;55066;51.560;4.642;2022-09-01T12:49:43;28.05;46.04
68251;DHT22;55066;51.560;4.642;2022-09-01T12:54:44;27.20;44.50
68251;DHT22;55066;51.560;4.642;2022-09-01T12:57:13;27.62;44.24
68251;DHT22;55066;51.560;4.642;2022-09-01T13:00:15;27.89;45.51
68251;DHT22;55066;51.560;4.642;2022-09-01T13:02:50;27.23;43.18
68251;DHT22;55066;51.560;4.642;2022-09-01T13:05:42;27.48;46.10
68251;DHT22;55066;51.560;4.642;2022-09-01T13:08:16;27.85;50.25
68251;DHT22;55066;51.560;4.642;2022-09-01T13:11:06;27.34;44.94
68251;DHT22;55066;51.560;4.642;2022-09-01T13:13:50;26.55;45.75
68251;DHT22;55066;51.560;4.642;2022-09-01T13:16:23;26.87;46.78
68251;DHT22;55066;51.560;4.642;2022-09-01T13:18:53;26.83;46.89
68251;DHT22;55066;51.560;4.642;2022-09-01T13:21:35;28.03;43.81
68251;DHT22;55066;51.560;4.642;2022-09-01T13:24:45;27.68;43.58
68251;DHT22;55066;51.560;4.642;2022-09-01T13:27:14;27.07;41.01
68251;DHT22;55066;51.560;4.642;2022-09-01T13:29:46;26.34;42.34
68251;DHT22;55066;51.560;4.642;2022-09-01T13:32:28;27.21;47.75
68251;DHT22;55066;51.560;4.642;2022-09-01T13:35:12;27.78;47.05
68251;DHT22;55066;51.560;4.642;2022-09-01T13:37:55;27.89;45.63
68251;DHT22;55066;51.560;4.642;2022-09-01T13:40:49;27.96;43.36
68251;DHT22;55066;51.560;4.642;2022-09-01T13:43:28;27.40;50.36
68251;DHT22;55066;51.560;4.642;2022-09-01T13:45:55;27.21;44.49
68251;DHT22;55066;51.560;4.642;2022-09-01T13:48:21;27.82;49.19
68251;DHT22;55066;51.560;4.642;2022-09-01T13:50:48;28.34;42.74
68251;DHT22;55066;51.560;4.642;2022-09-01T13:53:15;28.37;52.52
68251;DHT22;55066;51.560;4.642;2022-09-01T13:55:41;27.69;44.34
68251;DHT22;55066;51.560;4.642;2022-09-01T13:58:07;28.28;41.07
68251;DHT22;55066;51.560;4.642;2022-09-01T14:00:36;28.87;42.00
68251;DHT22;55066;51.560;4.642;2022-09-01T14:03:06;29.53;45.73
68251;DHT22;55066;51.560;4.642;2022-09-01T14:05:34;30.20;37.35
68251;DHT22;55066;51.560;4.642;2022-09-01T14:08:00;32.31;40.62
68251;DHT22;55066;51.560;4.642;2022-09-01T14:10:27;33.59;43.98
68251;DHT22;55066;51.560;4.642;2022-09-01T14:12:53;30.26;40.15
68251;DHT22;55066;51.560;4.642;2022-09-01T14:15:20;30.13;37.63
68251;DHT22;55066;51.560;4.642;2022-09-01T14:17:48;29.71;39.48
68251;DHT22;55066;51.560;4.642;2022-09-01T14:20:19;29.09;36.81
68251;DHT22;55066;51.560;4.642;2022-09-01T14:22:45;29.60;38.73
68251;DHT22;55066;51.560;4.642;2022-09-01T14:25:12;29.38;39.52
68251;DHT22;55066;51.560;4.642;2022-09-01T14:27:38;30.64;39.24
68251;DHT22;55066;51.560;4.642;2022-09-01T14:30:06;29.71;35.70
68251;DHT22;55066;51.560;4.642;2022-09-01T14:32:32;30.08;36.81
68251;DHT22;55066;51.560;4.642;2022-09-01T14:34:58;30.20;36.36
68251;DHT22;55066;51.560;4.642;2022-09-01T14:37:24;31.51;39.94
68251;DHT22;55066;51.560;4.642;2022-09-01T14:39:54;30.70;35.64
68251;DHT22;55066;51.560;4.642;2022-09-01T14:42:20;30.23;37.37
68251;DHT22;55066;51.560;4.642;2022-09-01T14:44:47;29.53;37.50
68251;DHT22;55066;51.560;4.642;2022-09-01T14:47:13;29.99;37.61
68251;DHT22;55066;51.560;4.642;2022-09-01T14:49:38;29.16;36.38
68251;DHT22;55066;51.560;4.642;2022-09-01T14:52:05;30.20;39.86
68251;DHT22;55066;51.560;4.642;2022-09-01T14:54:39;29.27;38.57
68251;DHT22;55066;51.560;4.642;2022-09-01T14:57:06;29.00;37.06
68251;DHT22;55066;51.560;4.642;2022-09-01T14:59:32;29.15;40.50
68251;DHT22;55066;51.560;4.642;2022-09-01T15:01:57;29.55;38.46
68251;DHT22;55066;51.560;4.642;2022-09-01T15:04:23;29.68;38.67
68251;DHT22;55066;51.560;4.642;2022-09-01T15:06:49;28.85;38.19
68251;DHT22;55066;51.560;4.642;2022-09-01T15:09:20;27.95;39.24
68251;DHT22;55066;51.560;4.642;2022-09-01T15:11:46;27.89;38.22
68251;DHT22;55066;51.560;4.642;2022-09-01T15:14:18;28.02;37.43
68251;DHT22;55066;51.560;4.642;2022-09-01T15:16:50;28.55;38.65
68251;DHT22;55066;51.560;4.642;2022-09-01T15:19:17;28.09;36.51
68251;DHT22;55066;51.560;4.642;2022-09-01T15:21:52;27.85;36.22
68251;DHT22;55066;51.560;4.642;2022-09-01T15:24:19;28.48;38.99
68251;DHT22;55066;51.560;4.642;2022-09-01T15:26:48;29.08;34.34
68251;DHT22;55066;51.560;4.642;2022-09-01T15:29:24;27.88;35.56
68251;DHT22;55066;51.560;4.642;2022-09-01T15:31:53;28.30;44.02
68251;DHT22;55066;51.560;4.642;2022-09-01T15:34:28;28.36;35.97
68251;DHT22;55066;51.560;4.642;2022-09-01T15:37:07;28.71;40.09
68251;DHT22;55066;51.560;4.642;2022-09-01T15:39:37;28.74;39.52
68251;DHT22;55066;51.560;4.642;2022-09-01T15:42:03;29.22;44.75
68251;DHT22;55066;51.560;4.642;2022-09-01T15:44:29;29.22;40.24
68251;DHT22;55066;51.560;4.642;2022-09-01T15:46:55;28.67;34.87
68251;DHT22;55066;51.560;4.642;2022-09-01T15:49:23;27.93;42.29
68251;DHT22;55066;51.560;4.642;2022-09-01T15:51:54;27.79;36.00
68251;DHT22;55066;51.560;4.642;2022-09-01T15:54:25;28.51;45.55
68251;DHT22;55066;51.560;4.642;2022-09-01T15:56:52;28.47;37.56
68251;DHT22;55066;51.560;4.642;2022-09-01T15:59:17;27.51;37.02
68251;DHT22;55066;51.560;4.642;2022-09-01T16:01:44;28.45;46.01
68251;DHT22;55066;51.560;4.642;2022-09-01T16:04:14;28.13;36.74
68251;DHT22;55066;51.560;4.642;2022-09-01T16:06:40;27.97;35.92
68251;DHT22;55066;51.560;4.642;2022-09-01T16:09:09;27.62;38.44
68251;DHT22;55066;51.560;4.642;2022-09-01T16:11:35;28.96;35.82
68251;DHT22;55066;51.560;4.642;2022-09-01T16:14:03;29.17;35.16
68251;DHT22;55066;51.560;4.642;2022-09-01T16:24:12;28.48;35.15
68251;DHT22;55066;51.560;4.642;2022-09-01T16:26:38;28.71;35.98
68251;DHT22;55066;51.560;4.642;2022-09-01T16:29:11;30.47;38.86
68251;DHT22;55066;51.560;4.642;2022-09-01T16:31:39;29.64;34.36
68251;DHT22;55066;51.560;4.642;2022-09-01T16:34:14;29.88;34.42
68251;DHT22;55066;51.560;4.642;2022-09-01T16:36:50;29.67;41.65
68251;DHT22;55066;51.560;4.642;2022-09-01T16:39:43;30.08;41.80
68251;DHT22;55066;51.560;4.642;2022-09-01T16:42:33;28.55;36.42
68251;DHT22;55066;51.560;4.642;2022-09-01T16:53:10;28.16;35.69
68251;DHT22;55066;51.560;4.642;2022-09-01T16:58:20;30.02;39.95
68251;DHT22;55066;51.560;4.642;2022-09-01T17:03:34;28.92;44.96
68251;DHT22;55066;51.560;4.642;2022-09-01T17:08:49;26.04;46.18
68251;DHT22;55066;51.560;4.642;2022-09-01T17:13:47;25.69;45.02
68251;DHT22;55066;51.560;4.642;2022-09-01T17:18:54;26.16;49.96
68251;DHT22;55066;51.560;4.642;2022-09-01T17:21:33;26.14;47.51
68251;DHT22;55066;51.560;4.642;2022-09-01T17:24:08;25.80;47.27
68251;DHT22;55066;51.560;4.642;2022-09-01T17:26:38;25.94;51.80
68251;DHT22;55066;51.560;4.642;2022-09-01T17:29:13;26.01;51.07